createdAt,value
2018-08-28T00:00:00.292Z,43.63
2018-08-28T00:02:32.077Z,43.27
2018-08-28T00:05:03.600Z,43.00
2018-08-28T00:07:34.967Z,42.98
2018-08-28T00:10:06.585Z,43.59
2018-08-28T00:12:38.218Z,43.22
2018-08-28T00:15:09.757Z,43.19
2018-08-28T00:17:40.898Z,43.13
2018-08-28T00:20:12.514Z,43.49
2018-08-28T00:22:44.185Z,43.59
2018-08-28T00:25:15.678Z,43.28
2018-08-28T00:27:47.188Z,43.15
2018-08-28T00:30:18.641Z,43.45
2018-08-28T00:32:49.868Z,43.16
2018-08-28T00:35:21.350Z,43.51
2018-08-28T00:37:52.742Z,43.51
2018-08-28T00:40:23.768Z,43.22
2018-08-28T00:42:54.792Z,43.70
2018-08-28T00:45:26.292Z,43.32
2018-08-28T00:47:57.772Z,43.51
2018-08-28T00:50:29.192Z,43.40
2018-08-28T00:53:00.712Z,43.40
2018-08-28T00:55:32.187Z,43.39
2018-08-28T00:58:03.685Z,43.78
2018-08-28T01:00:35.295Z,43.51
2018-08-28T01:03:07.337Z,43.62
2018-08-28T01:05:38.776Z,43.90
2018-08-28T01:08:10.631Z,43.67
2018-08-28T01:10:41.971Z,43.78
2018-08-28T01:13:13.512Z,43.81
2018-08-28T01:15:44.848Z,43.88
2018-08-28T01:18:16.294Z,43.82
2018-08-28T01:20:47.684Z,43.29
2018-08-28T01:23:19.004Z,43.76
2018-08-28T01:25:50.528Z,43.46
2018-08-28T01:28:21.848Z,43.92
2018-08-28T01:30:53.311Z,43.92
2018-08-28T01:33:24.724Z,43.80
2018-08-28T01:35:56.203Z,43.72
2018-08-28T01:38:27.689Z,43.55
2018-08-28T01:40:59.209Z,43.84
2018-08-28T01:43:32.300Z,43.57
2018-08-28T01:46:03.817Z,43.66
2018-08-28T01:48:35.283Z,43.63
2018-08-28T01:51:06.800Z,44.00
2018-08-28T01:53:38.323Z,43.57
2018-08-28T01:56:09.719Z,43.49
2018-08-28T01:58:41.200Z,43.74
2018-08-28T02:01:12.660Z,43.91
2018-08-28T02:03:43.963Z,43.50
2018-08-28T02:06:15.540Z,43.96
2018-08-28T02:08:46.842Z,44.13
2018-08-28T02:11:18.339Z,43.98
2018-08-28T02:13:49.711Z,43.66
2018-08-28T02:16:21.279Z,43.87
2018-08-28T02:18:52.714Z,43.66
2018-08-28T02:21:24.396Z,43.76
2018-08-28T02:23:55.786Z,43.60
2018-08-28T02:26:27.198Z,43.82
2018-08-28T02:28:58.688Z,43.92
2018-08-28T02:31:29.971Z,43.93
2018-08-28T02:34:01.476Z,43.99
2018-08-28T02:36:32.812Z,44.15
2018-08-28T02:39:05.275Z,43.81
2018-08-28T02:41:36.740Z,44.08
2018-08-28T02:44:08.196Z,43.87
2018-08-28T02:46:40.192Z,43.62
2018-08-28T02:49:11.681Z,44.04
2018-08-28T02:51:43.187Z,43.76
2018-08-28T02:54:14.832Z,43.66
2018-08-28T02:56:46.364Z,44.04
2018-08-28T02:59:17.767Z,44.09
2018-08-28T03:01:49.305Z,43.95
2018-08-28T03:04:20.753Z,43.83
2018-08-28T03:06:52.402Z,43.90
2018-08-28T03:09:23.748Z,43.85
2018-08-28T03:11:55.286Z,43.87
2018-08-28T03:14:26.783Z,44.20
2018-08-28T03:16:58.272Z,43.94
2018-08-28T03:19:29.674Z,43.90
2018-08-28T03:22:01.189Z,44.08
2018-08-28T03:24:32.684Z,43.83
2018-08-28T03:27:03.975Z,43.94
2018-08-28T03:29:34.515Z,44.19
2018-08-28T03:32:06.154Z,43.88
2018-08-28T03:34:37.708Z,43.76
2018-08-28T03:37:09.472Z,43.70
2018-08-28T03:39:40.573Z,43.82
2018-08-28T03:42:12.207Z,43.81
2018-08-28T03:44:43.721Z,43.78
2018-08-28T03:47:15.372Z,44.02
2018-08-28T03:49:46.836Z,43.74
2018-08-28T03:52:18.397Z,44.09
2018-08-28T03:54:49.968Z,44.19
2018-08-28T03:57:20.579Z,43.72
2018-08-28T03:59:52.211Z,44.11
2018-08-28T04:02:23.680Z,43.69
2018-08-28T04:04:55.202Z,44.11
2018-08-28T04:07:26.706Z,43.79
2018-08-28T04:09:58.302Z,44.07
2018-08-28T04:12:29.763Z,43.98
2018-08-28T04:15:01.361Z,43.95
2018-08-28T04:17:36.584Z,43.83
2018-08-28T04:20:07.966Z,43.63
2018-08-28T04:22:38.630Z,43.83
2018-08-28T04:25:10.624Z,43.91
2018-08-28T04:27:42.863Z,43.94
2018-08-28T04:30:14.523Z,43.57
2018-08-28T04:32:46.203Z,43.91
2018-08-28T04:35:18.511Z,43.49
2018-08-28T04:37:49.943Z,43.87
2018-08-28T04:40:20.535Z,43.60
2018-08-28T04:42:52.188Z,43.75
2018-08-28T04:47:01.502Z,43.46
2018-08-28T04:49:32.626Z,43.37
2018-08-28T04:52:03.732Z,43.66
2018-08-28T04:56:59.811Z,43.60
2018-08-28T04:59:30.787Z,43.49
2018-08-28T05:02:01.609Z,43.39
2018-08-28T05:04:32.422Z,43.53
2018-08-28T05:07:03.643Z,43.44
2018-08-28T05:09:34.672Z,43.97
2018-08-28T05:12:05.821Z,43.51
2018-08-28T05:14:36.806Z,43.51
2018-08-28T05:17:08.193Z,43.73
2018-08-28T05:19:39.449Z,43.58
2018-08-28T05:22:10.679Z,43.42
2018-08-28T05:24:41.671Z,43.63
2018-08-28T05:27:12.687Z,43.89
2018-08-28T05:29:44.385Z,43.49
2018-08-28T05:32:15.722Z,43.92
2018-08-28T05:34:47.300Z,43.64
2018-08-28T05:37:18.763Z,43.70
2018-08-28T05:39:50.200Z,43.34
2018-08-28T05:42:21.743Z,43.38
2018-08-28T05:44:53.284Z,43.46
2018-08-28T05:47:24.825Z,43.72
2018-08-28T05:49:56.348Z,43.66
2018-08-28T05:52:27.862Z,43.14
2018-08-28T05:54:59.366Z,43.17
2018-08-28T05:57:30.748Z,43.09
2018-08-28T06:00:01.739Z,43.14
2018-08-28T06:02:33.332Z,43.04
2018-08-28T06:05:04.723Z,43.04
2018-08-28T06:07:36.305Z,43.12
2018-08-28T06:10:07.761Z,42.69
2018-08-28T06:12:39.364Z,43.00
2018-08-28T06:15:10.752Z,42.82
2018-08-28T06:17:42.387Z,42.97
2018-08-28T06:20:13.836Z,42.59
2018-08-28T06:22:45.310Z,42.68
2018-08-28T06:25:16.718Z,43.05
2018-08-28T06:27:48.191Z,42.91
2018-08-28T06:30:19.660Z,42.90
2018-08-28T06:32:51.190Z,43.08
2018-08-28T06:35:22.688Z,42.78
2018-08-28T06:37:54.199Z,43.07
2018-08-28T06:40:25.647Z,42.74
2018-08-28T06:42:56.909Z,42.95
2018-08-28T06:45:28.369Z,42.49
2018-08-28T06:47:59.736Z,42.68
2018-08-28T06:50:31.023Z,42.41
2018-08-28T06:53:02.665Z,42.46
2018-08-28T06:55:33.975Z,42.71
2018-08-28T06:58:05.511Z,42.43
2018-08-28T07:00:36.839Z,42.40
2018-08-28T07:03:08.297Z,42.25
2018-08-28T07:05:39.680Z,42.46
2018-08-28T07:08:11.215Z,42.06
2018-08-28T07:10:42.697Z,42.32
2018-08-28T07:13:14.188Z,42.12
2018-08-28T07:15:45.692Z,42.44
2018-08-28T07:18:17.195Z,42.19
2018-08-28T07:20:48.695Z,41.86
2018-08-28T07:23:20.267Z,42.42
2018-08-28T07:25:51.819Z,42.73
2018-08-28T07:28:23.268Z,42.72
2018-08-28T07:30:54.744Z,42.34
2018-08-28T07:33:25.736Z,42.10
2018-08-28T07:35:56.714Z,42.07
2018-08-28T07:38:28.294Z,41.96
2018-08-28T07:40:59.743Z,42.52
2018-08-28T07:43:30.766Z,41.67
2018-08-28T07:46:02.305Z,42.25
2018-08-28T07:48:33.733Z,42.34
2018-08-28T07:51:05.332Z,41.83
2018-08-28T07:53:36.695Z,41.98
2018-08-28T07:56:08.194Z,42.17
2018-08-28T07:58:39.683Z,42.33
2018-08-28T08:01:11.192Z,42.31
2018-08-28T08:03:42.681Z,42.44
2018-08-28T08:06:14.185Z,42.40
2018-08-28T08:08:45.683Z,42.17
2018-08-28T08:11:17.189Z,42.13
2018-08-28T08:13:48.687Z,42.70
2018-08-28T08:16:20.198Z,42.29
2018-08-28T08:18:51.704Z,42.19
2018-08-28T08:21:23.334Z,42.27
2018-08-28T08:23:54.751Z,41.87
2018-08-28T08:26:26.333Z,42.20
2018-08-28T08:28:57.748Z,42.32
2018-08-28T08:31:29.302Z,41.90
2018-08-28T08:34:00.799Z,41.96
2018-08-28T08:36:32.384Z,42.00
2018-08-28T08:39:03.817Z,41.79
2018-08-28T08:41:35.576Z,41.55
2018-08-28T08:44:07.319Z,41.90
2018-08-28T08:46:38.947Z,41.91
2018-08-28T08:49:09.571Z,42.00
2018-08-28T08:51:41.195Z,41.77
2018-08-28T08:54:12.699Z,41.78
2018-08-28T08:56:44.301Z,41.80
2018-08-28T08:59:15.819Z,41.66
2018-08-28T09:01:47.411Z,41.99
2018-08-28T09:04:18.863Z,42.02
2018-08-28T09:06:50.389Z,41.70
2018-08-28T09:09:21.895Z,41.95
2018-08-28T09:11:53.378Z,42.18
2018-08-28T09:14:24.896Z,41.94
2018-08-28T09:16:56.627Z,42.32
2018-08-28T09:19:28.145Z,42.00
2018-08-28T09:21:59.743Z,41.52
2018-08-28T09:24:31.317Z,41.57
2018-08-28T09:27:02.788Z,41.65
2018-08-28T09:29:34.408Z,41.64
2018-08-28T09:32:06.956Z,41.76
2018-08-28T09:34:37.844Z,41.51
2018-08-28T09:37:09.640Z,41.41
2018-08-28T09:39:41.190Z,41.54
2018-08-28T09:42:12.760Z,41.47
2018-08-28T09:44:44.409Z,41.61
2018-08-28T09:47:15.633Z,41.72
2018-08-28T09:49:46.991Z,41.56
2018-08-28T09:52:18.190Z,41.06
2018-08-28T09:54:49.737Z,41.62
2018-08-28T09:57:21.422Z,41.20
2018-08-28T10:02:33.701Z,41.16
2018-08-28T10:05:04.739Z,41.49
2018-08-28T10:07:35.800Z,41.56
2018-08-28T10:10:06.642Z,41.87
2018-08-28T10:12:37.699Z,41.24
2018-08-28T10:15:09.384Z,41.79
2018-08-28T10:17:40.595Z,41.73
2018-08-28T10:20:11.690Z,41.90
2018-08-28T10:22:42.780Z,41.72
2018-08-28T10:25:13.820Z,41.95
2018-08-28T10:27:44.895Z,41.75
2018-08-28T10:30:16.374Z,41.82
2018-08-28T10:32:47.863Z,41.84
2018-08-28T10:35:19.400Z,41.79
2018-08-28T10:37:50.843Z,41.59
2018-08-28T10:40:22.650Z,41.44
2018-08-28T10:42:54.224Z,41.22
2018-08-28T10:45:25.727Z,40.82
2018-08-28T10:47:57.424Z,41.96
2018-08-28T10:50:28.747Z,42.03
2018-08-28T10:53:00.419Z,41.53
2018-08-28T10:55:31.892Z,41.99
2018-08-28T10:59:07.414Z,41.23
2018-08-28T11:01:38.839Z,42.15
2018-08-28T11:04:10.309Z,41.60
2018-08-28T11:06:41.780Z,41.33
2018-08-28T11:09:13.301Z,40.95
2018-08-28T11:11:44.838Z,40.77
2018-08-28T11:14:16.218Z,41.99
2018-08-28T11:16:47.711Z,41.52
2018-08-28T11:19:19.204Z,42.09
2018-08-28T11:21:50.758Z,42.07
2018-08-28T11:24:21.752Z,41.83
2018-08-28T11:26:52.783Z,40.95
2018-08-28T11:29:24.327Z,40.12
2018-08-28T11:31:55.766Z,38.88
2018-08-28T11:34:27.317Z,39.97
2018-08-28T11:36:59.008Z,39.07
2018-08-28T11:39:30.624Z,40.70
2018-08-28T11:42:02.049Z,40.61
2018-08-28T11:44:33.737Z,41.32
2018-08-28T11:47:05.458Z,41.00
2018-08-28T11:49:36.854Z,41.16
2018-08-28T11:52:08.241Z,41.21
2018-08-28T11:54:39.831Z,41.40
2018-08-28T11:57:11.332Z,41.77
2018-08-28T11:59:42.808Z,41.40
2018-08-28T12:02:13.792Z,40.32
2018-08-28T12:04:44.839Z,38.55
2018-08-28T12:07:16.390Z,39.62
2018-08-28T12:09:47.705Z,41.06
2018-08-28T12:12:19.193Z,42.08
2018-08-28T12:14:50.903Z,41.43
2018-08-28T12:17:22.628Z,41.00
2018-08-28T12:19:53.885Z,41.43
2018-08-28T12:22:25.429Z,40.93
2018-08-28T12:24:56.723Z,41.35
2018-08-28T12:27:28.319Z,40.96
2018-08-28T12:29:59.716Z,39.47
2018-08-28T12:32:31.327Z,39.18
2018-08-28T12:35:02.713Z,41.66
2018-08-28T12:37:34.213Z,40.37
2018-08-28T12:40:04.775Z,40.58
2018-08-28T12:42:36.406Z,39.56
2018-08-28T12:45:08.578Z,40.83
2018-08-28T12:47:40.621Z,40.04
2018-08-28T12:50:12.592Z,39.31
2018-08-28T12:52:43.864Z,39.52
2018-08-28T12:55:15.322Z,38.44
2018-08-28T12:57:46.817Z,39.17
2018-08-28T13:00:18.335Z,39.20
2018-08-28T13:02:49.809Z,39.63
2018-08-28T13:05:21.329Z,38.20
2018-08-28T13:07:52.810Z,38.39
2018-08-28T13:10:24.389Z,41.37
2018-08-28T13:12:55.881Z,41.12
2018-08-28T13:15:27.405Z,41.07
2018-08-28T13:17:58.814Z,39.80
2018-08-28T13:20:30.338Z,41.22
2018-08-28T13:23:01.898Z,41.48
2018-08-28T13:25:33.683Z,41.22
2018-08-28T13:28:05.233Z,39.80
2018-08-28T13:30:36.745Z,41.12
2018-08-28T13:33:08.324Z,41.03
2018-08-28T13:35:39.977Z,41.33
2018-08-28T13:38:10.662Z,40.95
2018-08-28T13:40:42.861Z,40.55
2018-08-28T13:43:14.193Z,39.83
2018-08-28T13:45:45.860Z,41.55
2018-08-28T13:48:17.453Z,41.12
2018-08-28T13:50:49.334Z,41.36
2018-08-28T13:53:20.861Z,40.98
2018-08-28T13:55:52.782Z,41.34
2018-08-28T13:58:24.032Z,41.43
2018-08-28T14:00:56.077Z,41.46
2018-08-28T14:03:27.732Z,40.96
2018-08-28T14:05:58.783Z,41.14
2018-08-28T14:08:30.036Z,41.25
2018-08-28T14:11:01.843Z,41.15
2018-08-28T14:13:33.240Z,41.26
2018-08-28T14:16:04.787Z,41.10
2018-08-28T14:18:36.390Z,41.22
2018-08-28T14:21:07.879Z,40.87
2018-08-28T14:23:39.536Z,41.11
2018-08-28T14:26:11.206Z,41.02
2018-08-28T14:28:42.748Z,40.54
2018-08-28T14:31:14.303Z,41.29
2018-08-28T14:33:45.790Z,41.39
2018-08-28T14:36:17.364Z,41.19
2018-08-28T14:38:49.384Z,41.43
2018-08-28T14:41:21.000Z,40.53
2018-08-28T14:43:52.661Z,41.12
2018-08-28T14:46:24.238Z,41.49
2018-08-28T14:49:10.226Z,40.44
2018-08-28T14:51:42.212Z,41.45
2018-08-28T14:54:14.570Z,40.03
2018-08-28T14:56:46.347Z,39.57
2018-08-28T14:59:17.907Z,39.64
2018-08-28T15:01:48.634Z,39.42
2018-08-28T15:04:21.232Z,40.57
2018-08-28T15:06:52.876Z,40.10
2018-08-28T15:09:24.447Z,40.03
2018-08-28T15:11:56.219Z,41.06
2018-08-28T15:14:27.760Z,41.41
2018-08-28T15:16:59.351Z,41.06
2018-08-28T15:19:30.824Z,40.69
2018-08-28T15:22:02.466Z,40.50
2018-08-28T15:24:33.802Z,40.68
2018-08-28T15:27:05.338Z,40.44
2018-08-28T15:29:36.793Z,40.30
2018-08-28T15:32:08.640Z,41.15
2018-08-28T15:34:40.387Z,40.86
2018-08-28T15:37:11.847Z,40.04
2018-08-28T15:39:43.553Z,39.55
2018-08-28T15:42:15.009Z,39.78
2018-08-28T15:44:46.872Z,40.73
2018-08-28T15:47:18.462Z,41.33
2018-08-28T15:49:52.476Z,40.58
2018-08-28T15:52:24.222Z,39.57
2018-08-28T15:54:55.705Z,39.46
2018-08-28T15:57:27.320Z,40.39
2018-08-28T15:59:58.878Z,38.87
2018-08-28T16:02:30.428Z,39.92
2018-08-28T16:05:01.770Z,39.88
2018-08-28T16:07:33.315Z,38.17
2018-08-28T16:10:04.891Z,39.57
2018-08-28T16:12:36.553Z,40.86
2018-08-28T16:15:08.523Z,40.96
2018-08-28T16:17:40.204Z,40.45
2018-08-28T16:20:11.761Z,39.63
2018-08-28T16:22:50.848Z,39.26
2018-08-28T16:25:22.633Z,39.61
2018-08-28T16:27:54.263Z,38.19
2018-08-28T16:30:25.818Z,39.88
2018-08-28T16:32:57.576Z,39.29
2018-08-28T16:35:30.335Z,38.76
2018-08-28T16:40:57.687Z,39.22
2018-08-28T16:43:28.908Z,40.80
2018-08-28T16:46:05.749Z,40.56
2018-08-28T16:48:36.889Z,38.63
2018-08-28T16:51:07.892Z,39.63
2018-08-28T16:53:38.830Z,39.58
2018-08-28T16:56:09.863Z,38.20
2018-08-28T16:58:41.765Z,39.38
2018-08-28T17:01:12.867Z,39.29
2018-08-28T17:03:45.583Z,38.25
2018-08-28T17:06:16.694Z,38.40
2018-08-28T17:08:47.674Z,39.59
2018-08-28T17:11:19.628Z,38.77
2018-08-28T17:13:50.731Z,39.94
2018-08-28T17:16:22.073Z,40.01
2018-08-28T17:18:53.434Z,39.50
2018-08-28T17:21:24.720Z,39.36
2018-08-28T17:23:55.855Z,40.22
2018-08-28T17:26:26.860Z,39.12
2018-08-28T17:28:57.822Z,39.60
2018-08-28T17:31:28.824Z,40.44
2018-08-28T17:33:59.863Z,39.50
2018-08-28T17:36:32.219Z,39.83
2018-08-28T17:39:03.461Z,39.30
2018-08-28T17:41:35.220Z,39.52
2018-08-28T17:44:06.635Z,39.75
2018-08-28T17:49:20.478Z,38.70
2018-08-28T17:51:51.679Z,39.69
2018-08-28T17:54:22.663Z,39.88
2018-08-28T17:56:53.747Z,38.65
2018-08-28T17:59:25.365Z,39.22
2018-08-28T18:02:07.479Z,39.46
2018-08-28T18:04:38.663Z,39.38
2018-08-28T18:07:09.731Z,38.82
2018-08-28T18:09:40.862Z,39.05
2018-08-28T18:12:22.599Z,39.29
2018-08-28T18:14:54.321Z,39.60
2018-08-28T18:17:25.595Z,38.83
2018-08-28T18:19:57.640Z,39.03
2018-08-28T18:22:28.661Z,40.18
2018-08-28T18:24:59.830Z,39.04
2018-08-28T18:27:30.578Z,39.07
2018-08-28T18:30:01.714Z,39.56
2018-08-28T18:32:32.838Z,39.51
2018-08-28T18:35:03.893Z,39.22
2018-08-28T18:37:34.882Z,38.75
2018-08-28T18:40:05.853Z,39.65
2018-08-28T18:42:36.872Z,39.87
2018-08-28T18:45:08.561Z,40.27
2018-08-28T18:47:39.758Z,40.76
2018-08-28T18:50:11.288Z,39.66
2018-08-28T18:52:42.793Z,39.70
2018-08-28T18:55:14.197Z,39.72
2018-08-28T18:57:45.828Z,40.10
2018-08-28T19:00:17.205Z,40.57
2018-08-28T19:02:48.752Z,40.47
2018-08-28T19:05:20.032Z,40.65
2018-08-28T19:07:51.481Z,40.27
2018-08-28T19:15:50.721Z,39.75
2018-08-28T19:18:21.901Z,39.95
2018-08-28T19:20:52.979Z,40.83
2018-08-28T19:23:37.625Z,40.13
2018-08-28T19:26:08.832Z,40.67
2018-08-28T19:28:40.061Z,40.20
2018-08-28T19:31:11.995Z,40.50
2018-08-28T19:33:43.204Z,39.69
2018-08-28T19:36:14.424Z,40.11
2018-08-28T19:38:45.657Z,40.47
2018-08-28T19:41:16.699Z,40.39
2018-08-28T19:43:47.662Z,41.19
2018-08-28T19:46:18.704Z,40.92
2018-08-28T19:48:49.774Z,40.28
2018-08-28T19:51:20.843Z,40.47
2018-08-28T19:53:52.427Z,40.71
2018-08-28T19:56:23.766Z,40.20
2018-08-28T19:58:55.227Z,40.27
2018-08-28T20:01:26.721Z,41.36
2018-08-28T20:03:58.419Z,40.83
2018-08-28T20:06:29.968Z,40.94
2018-08-28T20:09:01.661Z,40.55
2018-08-28T20:11:33.208Z,41.38
2018-08-28T20:14:04.605Z,40.96
2018-08-28T20:16:36.316Z,40.39
2018-08-28T20:19:07.807Z,40.58
2018-08-28T20:21:39.316Z,40.72
2018-08-28T20:24:10.787Z,41.33
2018-08-28T20:26:42.375Z,41.05
2018-08-28T20:29:13.786Z,40.87
2018-08-28T20:31:45.215Z,41.21
2018-08-28T20:34:16.754Z,40.57
2018-08-28T20:36:47.746Z,40.89
2018-08-28T20:39:19.329Z,41.00
2018-08-28T20:41:51.264Z,41.70
2018-08-28T20:44:22.777Z,40.92
2018-08-28T20:46:54.379Z,41.01
2018-08-28T20:49:25.874Z,41.16
2018-08-28T20:51:57.554Z,40.87
2018-08-28T20:54:29.209Z,41.09
2018-08-28T20:57:01.190Z,41.59
2018-08-28T20:59:32.697Z,41.64
2018-08-28T21:02:04.377Z,41.10
2018-08-28T21:04:35.884Z,41.66
2018-08-28T21:07:07.785Z,41.38
2018-08-28T21:09:39.410Z,41.59
2018-08-28T21:12:11.216Z,41.74
2018-08-28T21:14:42.757Z,41.54
2018-08-28T21:17:14.047Z,41.06
2018-08-28T21:19:45.252Z,42.01
2018-08-28T21:24:59.645Z,42.29
2018-08-28T21:27:31.211Z,42.20
2018-08-28T21:30:02.779Z,42.02
2018-08-28T21:32:34.496Z,41.70
2018-08-28T21:35:05.601Z,41.82
2018-08-28T21:37:37.510Z,41.77
2018-08-28T21:40:09.314Z,41.94
2018-08-28T21:42:40.790Z,41.59
2018-08-28T21:45:13.973Z,41.70
2018-08-28T21:47:45.661Z,41.98
2018-08-28T21:50:17.315Z,41.63
2018-08-28T21:52:49.395Z,41.47
2018-08-28T21:58:01.558Z,41.81
2018-08-28T22:00:33.794Z,41.67
2018-08-28T22:03:05.427Z,42.07
2018-08-28T22:05:39.208Z,42.13
2018-08-28T22:08:10.745Z,40.82
2018-08-28T22:10:42.035Z,40.55
2018-08-28T22:13:13.634Z,40.72
2018-08-28T22:15:45.361Z,40.17
2018-08-28T22:18:16.859Z,41.34
2018-08-28T22:20:53.595Z,41.13
2018-08-28T22:23:25.658Z,41.71
2018-08-28T22:25:57.316Z,41.23
2018-08-28T22:28:28.842Z,41.04
2018-08-28T22:31:00.715Z,41.26
2018-08-28T22:33:32.195Z,41.55
2018-08-28T22:36:03.756Z,40.09
2018-08-28T22:38:35.353Z,41.43
2018-08-28T22:41:06.781Z,40.85
2018-08-28T22:43:38.034Z,41.27
2018-08-28T22:46:09.405Z,41.66
2018-08-28T22:48:40.819Z,42.06
2018-08-28T22:51:12.503Z,41.55
2018-08-28T22:53:43.884Z,41.89
2018-08-28T22:56:16.004Z,41.81
2018-08-28T23:01:27.894Z,42.00
2018-08-28T23:03:58.871Z,42.15
2018-08-28T23:06:30.686Z,42.31
2018-08-28T23:09:01.740Z,42.04
2018-08-28T23:11:32.865Z,41.83
2018-08-28T23:14:04.873Z,41.61
2018-08-28T23:16:35.900Z,41.94
2018-08-28T23:19:06.816Z,41.54
2018-08-28T23:21:37.810Z,42.12
2018-08-28T23:24:08.856Z,41.37
2018-08-28T23:26:39.802Z,41.65
2018-08-28T23:29:10.783Z,41.25
2018-08-28T23:31:42.204Z,41.31
2018-08-28T23:34:13.453Z,41.91
2018-08-28T23:36:44.628Z,41.70
2018-08-28T23:39:15.687Z,41.46
2018-08-28T23:41:46.735Z,41.42
2018-08-28T23:44:18.561Z,42.04
2018-08-28T23:46:49.712Z,41.74
2018-08-28T23:49:20.687Z,41.55
2018-08-28T23:51:51.872Z,41.88
2018-08-28T23:54:23.364Z,42.38
2018-08-28T23:56:54.620Z,41.27
2018-08-28T23:59:25.662Z,41.12
